Latest Weather Observations for Ouse

IDT60801

Issued at 11:05 pm EST Wednesday 30 July 2014 (issued every 30 minutes, with the page automatically refreshed every 10 minutes)

About weather observations | Map of weather stations | Latest weather observations for TAS | Other Formats
Station Details ID: 095048 Name: OUSE FIRE STATION Lat: -42.48 Lon: 146.71 Height: 90.0 m
Data from the previous 72 hours. | See also: Recent months at Ouse
Date/Time
EST
Temp
°C
App
Temp
°C
Dew
Point
Rel
Hum
%
Delta-T
°C
Wind Press
QNH
hPa
Press
MSL
hPa
Rain
since 9 am
mm
Dir
 
Spd
km/h
Gust
km/h
Spd
kts
Gust
kts
30/11:00pm 12.6 7.3 6.6 67 2.9 NW 24 43 13 23 990.7 990.9 11.0
30/10:41pm 12.7 6.6 6.7 67 2.9 NNW 28 50 15 27 990.5 - 11.0
30/10:30pm 12.1 6.8 7.0 71 2.5 NNW 24 43 13 23 990.8 - 11.0
30/10:00pm 12.0 4.8 7.7 75 2.1 WNW 35 57 19 31 991.9 992.2 10.8
30/09:30pm 14.0 5.6 5.4 56 4.1 NW 39 67 21 36 991.3 - 10.8
30/09:12pm 13.9 3.3 5.3 56 4.1 NW 50 69 27 37 991.4 - 10.8
30/09:10pm 14.0 2.1 5.4 56 4.1 NW 57 69 31 37 991.5 - 10.8
30/09:00pm 13.7 6.1 5.8 59 3.8 NW 35 69 19 37 991.6 991.9 10.8
30/08:38pm 13.6 5.7 6.2 61 3.5 NW 37 76 20 41 991.4 - 10.8
30/08:30pm 13.2 5.4 6.5 64 3.2 NW 37 57 20 31 991.7 - 10.8
30/08:19pm 13.1 6.2 7.3 68 2.8 NW 33 67 18 36 992.2 - 10.8
30/08:08pm 12.3 6.6 8.2 76 2.0 NW 28 48 15 26 992.2 - 10.8
30/08:00pm 11.1 7.1 8.1 82 1.5 NNW 19 35 10 19 992.1 992.4 10.8
30/07:30pm 10.1 7.6 8.0 87 1.0 N 11 15 6 8 992.2 - 10.8
30/07:00pm 10.6 7.0 8.5 87 1.0 NNW 17 28 9 15 993.1 993.4 10.6
30/06:30pm 10.4 6.7 8.0 85 1.2 N 17 24 9 13 993.8 - 10.2
30/06:00pm 10.8 7.8 7.7 81 1.5 N 13 24 7 13 994.2 994.4 9.8
30/05:30pm 10.9 6.6 8.0 82 1.4 NW 20 39 11 21 994.2 - 9.8
30/05:00pm 10.8 7.4 9.2 90 0.8 N 17 22 9 12 994.0 994.2 9.8
30/04:30pm 10.5 7.9 9.3 92 0.6 N 13 19 7 10 993.9 - 9.6
30/04:00pm 11.0 6.9 8.8 86 1.1 NNW 20 35 11 19 993.4 993.6 8.6
30/03:30pm 10.8 8.1 8.9 88 0.9 NNW 13 26 7 14 993.9 - 7.4
30/03:00pm 10.9 8.2 9.0 88 1.0 NNW 13 24 7 13 994.0 994.2 6.6
30/02:30pm 10.6 8.3 9.0 90 0.8 N 11 20 6 11 994.1 - 6.4
30/02:00pm 10.1 7.4 9.0 93 0.6 N 13 20 7 11 994.8 995.0 6.2
30/01:30pm 9.9 6.3 8.2 89 0.8 N 17 24 9 13 995.1 - 5.6
30/01:00pm 9.9 6.5 7.8 87 1.0 N 15 28 8 15 995.5 995.7 4.4
30/12:30pm 10.3 7.3 7.9 85 1.2 NNW 13 24 7 13 995.6 - 3.6
30/12:00pm 10.6 6.6 8.2 85 1.2 NNW 19 30 10 16 996.2 996.4 3.0
30/11:30am 10.2 7.0 8.3 88 0.9 N 15 24 8 13 997.0 - 2.6
30/11:00am 10.1 7.7 8.5 90 0.8 N 11 17 6 9 997.1 997.3 1.8
30/10:30am 9.8 6.5 8.1 89 0.8 NNW 15 24 8 13 997.6 - 1.2
30/10:00am 10.1 6.3 7.7 85 1.2 N 17 24 9 13 997.4 997.6 0.4
30/09:30am 9.7 6.2 7.3 85 1.1 N 15 28 8 15 997.5 - 0.4
30/09:00am 9.0 4.6 6.6 85 1.1 N 19 32 10 17 997.5 997.7 25.6
30/08:30am 8.4 4.5 6.9 90 0.7 N 17 24 9 13 997.3 - 25.0
30/08:00am 6.9 3.9 6.0 94 0.4 N 11 15 6 8 997.7 997.9 24.4
30/07:30am 6.7 3.8 4.9 88 0.8 N 9 15 5 8 997.7 - 24.0
30/07:00am 7.6 2.8 4.4 80 1.4 NW 19 39 10 21 997.6 997.8 24.0
30/06:30am 7.0 3.0 2.7 74 1.8 NNW 13 20 7 11 997.5 - 23.6
30/06:00am 8.0 5.2 2.9 70 2.2 N 7 9 4 5 997.8 998.0 23.6
30/05:30am 9.0 3.3 2.8 65 2.6 NW 22 39 12 21 998.3 - 23.6
30/05:00am 8.9 3.7 3.3 68 2.4 NW 20 32 11 17 998.1 998.3 23.6
30/04:30am 7.5 3.9 4.8 83 1.2 NW 13 24 7 13 997.5 - 23.6
30/04:00am 7.8 3.8 4.9 82 1.3 WNW 15 28 8 15 997.4 997.6 23.2
30/03:30am 8.2 3.8 4.8 79 1.5 WNW 17 33 9 18 997.0 - 22.4
30/03:00am 8.5 2.3 4.5 76 1.8 NW 26 43 14 23 996.2 996.4 22.4
30/02:30am 9.1 2.2 4.5 73 2.0 WNW 30 50 16 27 995.4 - 22.4
30/02:15am 8.9 2.4 4.9 76 1.8 WNW 28 52 15 28 994.7 - 22.4
30/02:00am 8.1 3.9 5.6 84 1.1 NNW 17 28 9 15 994.0 994.2 22.2
30/01:30am 8.1 3.2 5.0 81 1.4 NW 20 32 11 17 993.6 - 21.8
30/01:06am 8.5 2.0 4.7 77 1.7 WNW 28 56 15 30 992.7 - 21.6
30/01:00am 8.0 2.3 4.8 80 1.4 WNW 24 43 13 23 993.3 993.5 21.6
30/12:30am 9.3 1.0 4.1 70 2.3 W 37 69 20 37 992.3 - 20.6
30/12:14am 10.7 2.1 2.8 58 3.5 WNW 37 89 20 48 991.7 - 20.2
30/12:00am 9.8 2.1 3.5 65 2.8 WNW 33 69 18 37 991.9 992.2 20.2
 
Date/Time
EST
Temp
°C
App
Temp
°C
Dew
Point
Rel
Hum
%
Delta-T
°C
Wind Press
QNH
hPa
Press
MSL
hPa
Rain
since 9 am
mm
Dir
 
Spd
km/h
Gust
km/h
Spd
kts
Gust
kts
29/11:31pm 9.3 2.9 5.1 75 1.9 W 28 57 15 31 991.2 - 19.4
29/11:30pm 9.2 3.5 5.0 75 1.9 W 24 57 13 31 991.2 - 19.4
29/11:00pm 9.0 2.2 5.2 77 1.7 NW 30 61 16 33 990.6 990.8 19.0
29/10:32pm 9.1 2.7 5.1 76 1.8 WNW 28 46 15 25 990.7 - 18.4
29/10:30pm 9.0 3.3 5.0 76 1.8 W 24 46 13 25 990.6 - 18.4
29/10:20pm 9.0 2.5 4.8 75 1.9 W 28 48 15 26 990.8 - 18.2
29/10:00pm 9.2 2.8 5.2 76 1.8 W 28 33 15 18 990.7 990.9 16.4
29/09:30pm 10.4 2.5 4.5 67 2.7 NW 35 57 19 31 989.9 - 15.8
29/09:25pm 10.0 2.6 4.8 70 2.3 NW 33 57 18 31 990.0 - 15.8
29/09:00pm 10.0 5.3 5.2 72 2.2 WNW 19 32 10 17 989.5 989.7 15.4
29/08:30pm 11.3 3.6 3.6 59 3.4 NW 33 52 18 28 989.0 - 14.8
29/08:00pm 11.8 4.1 3.6 57 3.7 WNW 33 74 18 40 988.8 989.0 14.8
29/07:37pm 11.8 3.1 4.1 59 3.5 NW 39 95 21 51 988.4 - 14.8
29/07:30pm 11.4 2.8 4.4 62 3.2 WNW 39 69 21 37 988.6 - 14.8
29/07:00pm 10.8 2.2 4.7 66 2.8 NW 39 72 21 39 988.0 988.2 14.6
29/06:30pm 10.2 2.1 5.4 72 2.2 WNW 37 61 20 33 988.1 - 14.6
29/06:27pm 10.2 1.0 5.4 72 2.2 WNW 43 61 23 33 988.3 - 14.6
29/06:26pm 10.1 0.8 5.7 74 2.0 WNW 44 61 24 33 988.3 - 14.6
29/06:22pm 10.0 -1.2 6.0 76 1.9 W 54 72 29 39 988.4 - 14.4
29/06:18pm 10.5 -0.5 6.8 78 1.8 WNW 54 87 29 47 988.8 - 14.2
29/06:00pm 11.0 4.5 6.7 75 2.1 W 30 54 16 29 986.8 987.0 13.8
29/05:50pm 12.1 4.4 7.0 71 2.5 W 37 63 20 34 986.9 - 13.4
29/05:31pm 11.7 5.8 7.4 75 2.1 NW 28 61 15 33 985.2 - 13.4
29/05:30pm 11.8 6.3 7.5 75 2.1 NW 26 61 14 33 985.1 - 13.4
29/05:00pm 12.2 6.0 7.7 74 2.2 NW 30 65 16 35 985.9 986.1 13.4
29/04:48pm 11.7 6.2 9.1 84 1.3 NW 28 48 15 26 986.1 - 13.0
29/04:43pm 11.4 6.1 9.8 90 0.8 NW 28 44 15 24 986.1 - 13.0
29/04:30pm 10.7 8.2 9.6 93 0.6 N 13 20 7 11 985.1 - 11.6
29/04:00pm 9.8 7.5 8.9 94 0.5 NW 11 17 6 9 985.9 986.1 11.6
29/03:30pm 10.0 6.1 8.6 91 0.7 N 19 26 10 14 985.8 - 11.2
29/03:00pm 10.2 6.6 8.5 89 0.8 N 17 24 9 13 986.9 987.1 10.6
29/02:30pm 9.9 7.5 8.5 91 0.7 N 11 15 6 8 988.1 - 10.0
29/02:00pm 9.6 6.6 7.9 89 0.8 N 13 19 7 10 988.5 988.7 9.8
29/01:30pm 10.6 6.3 7.1 79 1.7 NNW 19 32 10 17 989.0 - 9.0
29/01:00pm 11.1 7.8 8.0 81 1.5 NNW 15 28 8 15 989.7 989.9 9.0
29/12:30pm 9.1 5.6 7.1 87 0.9 N 15 22 8 12 990.7 - 9.0
29/12:00pm 8.4 3.4 6.5 88 0.9 WNW 22 50 12 27 992.6 992.9 8.8
29/11:30am 9.0 5.3 7.8 92 0.6 NNW 17 28 9 15 991.8 - 6.4
29/11:00am 9.6 5.8 7.5 87 1.0 WNW 17 24 9 13 991.6 991.9 4.2
29/10:30am 9.7 6.3 7.8 88 0.9 NW 15 24 8 13 991.5 - 2.6
29/10:00am 10.9 6.5 7.6 80 1.6 NW 20 30 11 16 991.5 991.8 1.4
29/09:30am 10.9 6.9 9.2 89 0.9 NW 20 35 11 19 991.9 - 1.2
29/09:00am 12.3 8.5 9.1 81 1.6 NW 19 26 10 14 990.8 991.0 4.4
29/08:30am 10.6 7.2 10.6 100 0.0 NW 19 35 10 19 990.9 - 3.8
29/08:00am 8.0 6.2 8.0 100 0.0 S 7 11 4 6 991.4 991.7 3.8
29/07:30am 8.1 5.9 7.8 98 0.1 S 9 11 5 6 991.0 - 3.8
29/07:00am 8.5 6.8 7.7 95 0.4 W 6 9 3 5 991.6 991.9 3.4
29/06:30am 9.0 5.3 7.8 92 0.6 N 17 24 9 13 991.7 - 3.4
29/06:00am 9.4 6.4 7.7 89 0.8 N 13 22 7 12 991.6 991.9 2.4
29/05:30am 10.0 6.5 7.3 83 1.3 N 15 22 8 12 993.5 - 1.4
29/05:00am 9.4 5.3 7.7 89 0.8 N 19 30 10 16 994.2 994.4 1.4
29/04:30am 7.1 4.1 6.2 94 0.4 N 11 19 6 10 994.8 - 1.4
29/04:00am 6.6 3.6 5.9 95 0.3 N 11 13 6 7 995.2 995.4 1.2
29/03:30am 5.1 1.7 3.9 92 0.5 N 11 17 6 9 995.9 - 1.2
29/03:00am 6.8 3.2 4.8 87 0.9 NNW 13 17 7 9 996.4 996.6 1.2
29/02:30am 6.4 2.7 4.2 86 0.9 NNW 13 20 7 11 997.2 - 1.2
29/02:00am 7.0 3.4 4.8 86 1.0 NNW 13 20 7 11 997.7 997.9 1.2
29/01:30am 6.7 3.6 5.7 93 0.4 NNW 11 17 6 9 998.2 - 1.2
29/01:00am 5.9 2.2 4.4 90 0.7 N 13 17 7 9 998.5 998.7 1.2
29/12:30am 6.6 3.3 4.6 87 0.9 N 11 15 6 8 999.0 - 1.2
29/12:00am 7.3 4.1 4.9 85 1.1 NNW 11 13 6 7 999.8 1000.0 1.2
 
Date/Time
EST
Temp
°C
App
Temp
°C
Dew
Point
Rel
Hum
%
Delta-T
°C
Wind Press
QNH
hPa
Press
MSL
hPa
Rain
since 9 am
mm
Dir
 
Spd
km/h
Gust
km/h
Spd
kts
Gust
kts
28/11:30pm 7.1 4.0 5.4 89 0.8 N 11 15 6 8 1000.2 - 1.2
28/11:00pm 7.7 4.5 5.3 85 1.1 N 11 15 6 8 1000.2 1000.4 1.2
28/10:30pm 8.6 4.8 5.9 83 1.2 NNW 15 22 8 12 1000.6 - 1.2
28/10:00pm 8.6 5.1 5.4 80 1.5 NNW 13 26 7 14 1001.2 1001.5 1.2
28/09:30pm 9.7 6.1 6.6 81 1.5 NNW 15 26 8 14 1001.4 - 1.2
28/09:00pm 9.9 5.9 6.8 81 1.5 NW 17 24 9 13 1001.3 1001.6 1.2
28/08:30pm 8.8 6.1 7.3 90 0.7 NNW 11 20 6 11 1001.7 - 1.2
28/08:00pm 9.2 6.5 7.5 89 0.8 NNW 11 15 6 8 1002.1 1002.4 1.2
28/07:30pm 10.1 5.9 7.5 84 1.2 NW 19 24 10 13 1002.7 - 0.8
28/07:00pm 10.8 7.4 5.8 71 2.3 NNW 13 17 7 9 1002.2 1002.5 0.2
28/06:30pm 11.3 7.2 6.2 71 2.4 NW 17 26 9 14 1002.4 - 0.2
28/06:00pm 11.6 6.9 5.9 68 2.7 NW 20 37 11 20 1001.9 1002.2 0.0
28/05:30pm 12.4 5.9 4.6 59 3.6 NW 28 44 15 24 1001.6 - 0.0
28/05:26pm 12.5 5.2 4.7 59 3.6 NW 32 44 17 24 1001.5 - 0.0
28/05:00pm 11.2 7.6 4.9 65 2.9 NNW 13 19 7 10 1001.6 1001.9 0.0
28/04:30pm 12.6 8.6 5.1 60 3.5 WNW 15 22 8 12 1002.0 - 0.0
28/04:00pm 13.7 7.2 4.8 55 4.2 WNW 28 43 15 23 1002.5 1002.8 0.0
28/03:32pm 14.5 7.9 4.2 50 4.8 NW 28 48 15 26 1002.4 - 0.0
28/03:30pm 14.7 8.5 4.1 49 4.9 NW 26 48 14 26 1002.4 - 0.0
28/03:23pm 14.9 8.3 4.0 48 5.0 NW 28 46 15 25 1002.4 - 0.0
28/03:00pm 15.1 8.4 3.6 46 5.3 WNW 28 44 15 24 1002.8 1003.1 0.0
28/02:30pm 15.5 8.3 3.0 43 5.7 WNW 30 44 16 24 1003.1 - 0.0
28/02:19pm 15.5 8.4 3.3 44 5.6 WNW 30 48 16 26 1003.0 - 0.0
28/02:00pm 15.8 10.3 3.9 45 5.6 NW 22 33 12 18 1002.8 1003.1 0.0
28/01:30pm 15.8 9.5 3.6 44 5.6 NW 26 43 14 23 1003.1 - 0.0
28/01:00pm 15.5 10.2 4.8 49 5.1 WNW 22 35 12 19 1003.6 1003.9 0.0
28/12:30pm 15.5 9.9 5.4 51 4.8 WNW 24 44 13 24 1004.1 - 0.0
28/12:00pm 15.0 10.0 6.3 56 4.2 WNW 22 39 12 21 1004.8 1005.0 0.0
28/11:30am 13.7 9.1 6.3 61 3.6 NW 20 30 11 16 1005.3 - 0.0
28/11:00am 13.3 8.3 6.6 64 3.2 WNW 22 39 12 21 1005.8 1006.0 0.0
28/10:41am 12.4 6.4 6.9 69 2.7 WNW 28 48 15 26 1006.2 - 0.0
28/10:30am 12.6 7.5 7.5 71 2.5 NW 24 35 13 19 1006.2 - 0.0
28/10:00am 13.1 8.0 7.8 70 2.6 NW 24 33 13 18 1006.0 1006.2 0.0
28/09:30am 13.2 8.3 7.0 66 3.0 NW 22 32 12 17 1005.8 - 0.0
28/09:00am 11.9 7.8 6.2 68 2.7 NNW 17 26 9 14 1006.1 1006.3 0.6
28/08:30am 9.8 8.0 7.1 83 1.3 NE 6 11 3 6 1006.3 - 0.6
28/08:00am 9.0 6.0 5.9 81 1.4 NE 11 15 6 8 1006.0 1006.2 0.6
28/07:30am 10.5 6.8 6.3 75 2.0 NNW 15 28 8 15 1006.1 - 0.6
28/07:00am 9.4 6.6 7.0 85 1.1 NNW 11 19 6 10 1006.3 1006.5 0.6
28/06:30am 9.5 6.3 6.9 84 1.2 N 13 19 7 10 1006.3 - 0.6
28/06:00am 11.5 7.5 8.2 80 1.6 NNW 19 26 10 14 1006.3 1006.5 0.6
28/05:30am 11.8 7.9 8.5 80 1.6 NW 19 32 10 17 1006.4 - 0.6
28/05:00am 10.2 7.6 7.8 85 1.2 N 11 19 6 10 1006.1 1006.3 0.2
28/04:30am 9.5 6.3 6.9 84 1.2 NNW 13 20 7 11 1006.0 - 0.2
28/04:00am 9.0 6.1 6.3 83 1.3 N 11 15 6 8 1006.1 1006.3 0.2
28/03:30am 7.6 4.6 6.1 90 0.7 N 11 17 6 9 1006.2 - 0.2
28/03:00am 7.1 4.8 5.6 90 0.7 N 7 13 4 7 1006.5 1006.7 0.2
28/02:30am 8.0 5.8 6.0 87 0.9 N 7 11 4 6 1007.1 - 0.2
28/02:00am 7.5 5.3 6.0 90 0.7 N 7 11 4 6 1007.9 1008.1 0.2
28/01:30am 7.5 4.8 5.6 88 0.9 N 9 13 5 7 1008.5 - 0.2
28/01:00am 7.6 4.5 5.7 88 0.9 N 11 15 6 8 1008.8 1009.0 0.2
28/12:30am 8.1 5.1 6.1 87 0.9 N 11 17 6 9 1009.1 - 0.2
28/12:00am 7.3 4.0 6.2 93 0.5 N 13 17 7 9 1009.8 1010.1 0.2
 
Date/Time
EST
Temp
°C
App
Temp
°C
Dew
Point
Rel
Hum
%
Delta-T
°C
Wind Press
QNH
hPa
Press
MSL
hPa
Rain
since 9 am
mm
Dir
 
Spd
km/h
Gust
km/h
Spd
kts
Gust
kts
27/11:30pm 5.4 2.9 4.7 95 0.3 N 7 9 4 5 1010.2 - 0.2

Other Formats:

Comma delimited format used in spreadsheet applications
http://www.bom.gov.au/fwo/IDT60801/IDT60801.94957.axf

JavaScript Object Notation format (JSON) in row-major order
http://www.bom.gov.au/fwo/IDT60801/IDT60801.94957.json